Portada
METAR-TAF:

METAR-TAF

Aeroports :

Aeroport Internacional de Pequín

Pequín, Xina

latitud: 39-56N, longitud: 116-17E, altitud: 55 m

Observació

L'informe es va fer fa 39 minuts, a les 03:30 UTC
Vent 2 kt amb direcció variable
Temperatura 16°C
Humitat 25%
Pressió 1034 hPa
Visibilitat 10 km o més
sense núvols per sota de 1500 mi sense presència de cumulonimbus.

METAR: ZBAA 150330Z VRB01MPS CAVOK 16/M04 Q1034 NOSIG

Hora: 12:09 (04:09 UTC)

Pronòstic

L'informe es va fer fa 6 hores i 49 minuts, a les 21:20 UTC
Pronòstic vàlid del 15 a les 00 UTC al 15 a les 24 UTC
Vent 8 kt del Sud
Visibilitat: 5000 m
boirina

TAF: ZBAA 142120Z 1500/1524 18004MPS 5000 BR NSC TX16/1507Z TN05/1521Z

Observacions i pronòstics meteorològics de més de 4000 aeroports (METAR i TAF).

Les estacions disponibles són els punts grocs i vermells al mapa.

Posi el ratolí al punt desitjat per veure el nom de l'estació.

Feu clic per veure les observacions i els pronòstics meteorològics.

Per canviar el mapa: feu clic els botons verds amb una creu de color negre per apropar; al botó verd amb un guió per allunyar la imatge; o en les fletxes verdes per a mapes adjacents.


METAR-TAF: